Bayside, NY (11364)

9:17 PM EST on March 06, 2015 (GMT -0500)
Just West of Town Hall | Change Station
CLOSE
Current Station
Personal Weather Station
Location: Floral Park, NY
Elevation: 78 ft
Nearby Weather Stations

Elev 78 ft 40.72 °N, 73.71 °W | Updated 3 seconds ago

Mostly Cloudy
Mostly Cloudy
21.9 °F
Feels Like 18 °F
N
3.1
Wind Variable Wind from North
Gusts 3.1 mph

Today
High -- | Low -- °F
--% Chance of Precip.
Yesterday
High -- | Low -- °F
Precip. -- in
6:21 AM 5:51 PM
Full, 98% visible
Pressure 30.38 in
Visibility 10.0 miles
Clouds Mostly Cloudy 25000 ft
Windchill 18 °F
Dew Point 21 °F
Humidity 96%
Rainfall in
Snow Depth Not available.
UV 0 out of 12
Pollen .60 out of 12
Air Quality Not available.
Flu Activity Not available.
METAR KLGA 070151Z 21009KT 10SM BKN250 M04/M13 A3038 RMK AO2 SLP288 T10441133

More Conditions Fewer Conditions

Pressure 30.38 in
Visibility 10.0 miles
Clouds Mostly Cloudy 25000 ft
Windchill 18 °F
Dew Point 21 °F
Humidity 96%
Rainfall in
Snow Depth Not available.
UV 0 out of 12
Pollen .60 out of 12
Air Quality Not available.
Flu Activity Not available.
METAR KLGA 070151Z 21009KT 10SM BKN250 M04/M13 A3038 RMK AO2 SLP288 T10441133

More Conditions Fewer Conditions

10-Day Weather Forecast

Almanac

Astronomy

Mar. 06, 2015 Rise Set
Actual Time
Civil Twilight
Nautical Twilight
Astronomical Twilight
Moon
Length of Visible Light
Length of Day
Tomorrow will be .
, % of the Moon is Illuminated

Today's Extremes

State Highs State Lows

Community

WunderPhotos

Upload Photos

1,803,499 photos uploaded!

WunderBlogs® & News

Nearby

Air Quality

  Air Quality AQ Index Pollutant
Not available.

Snow Depth

Station Depth Elevation

Earthquake Activity

City Distance Mag. Time & Date
Minimum magnitude displayed is 2.5.

Coastal Water Temperatures

Place Temperature

Nearby Weather Stations